sensor_id;sensor_type;location;lat;lon;timestamp;temperature;humidity
316;DHT22;14128;48.686;9.738;2023-06-26T00:01:58;16.40;99.90
316;DHT22;14128;48.686;9.738;2023-06-26T00:04:25;16.30;99.90
316;DHT22;14128;48.686;9.738;2023-06-26T00:06:51;16.30;99.90
316;DHT22;14128;48.686;9.738;2023-06-26T00:09:18;16.30;99.90
316;DHT22;14128;48.686;9.738;2023-06-26T00:11:45;16.30;99.90
316;DHT22;14128;48.686;9.738;2023-06-26T00:14:13;16.30;72.80
316;DHT22;14128;48.686;9.738;2023-06-26T00:16:40;16.30;99.90
316;DHT22;14128;48.686;9.738;2023-06-26T00:19:08;16.30;99.90
316;DHT22;14128;48.686;9.738;2023-06-26T00:21:34;16.30;99.90
316;DHT22;14128;48.686;9.738;2023-06-26T00:24:01;16.30;99.90
316;DHT22;14128;48.686;9.738;2023-06-26T00:26:28;16.30;1.00
316;DHT22;14128;48.686;9.738;2023-06-26T00:28:55;16.30;99.90
316;DHT22;14128;48.686;9.738;2023-06-26T00:31:23;16.40;1.00
316;DHT22;14128;48.686;9.738;2023-06-26T00:33:50;16.40;99.90
316;DHT22;14128;48.686;9.738;2023-06-26T00:36:17;16.40;99.90
316;DHT22;14128;48.686;9.738;2023-06-26T00:38:43;16.40;99.90
316;DHT22;14128;48.686;9.738;2023-06-26T00:41:10;16.40;99.90
316;DHT22;14128;48.686;9.738;2023-06-26T00:43:38;16.20;99.90
316;DHT22;14128;48.686;9.738;2023-06-26T00:46:09;16.10;99.90
316;DHT22;14128;48.686;9.738;2023-06-26T00:48:38;16.10;99.90
316;DHT22;14128;48.686;9.738;2023-06-26T00:51:05;16.00;99.90
316;DHT22;14128;48.686;9.738;2023-06-26T00:53:33;16.00;99.90
316;DHT22;14128;48.686;9.738;2023-06-26T00:56:01;16.00;99.90
316;DHT22;14128;48.686;9.738;2023-06-26T00:58:28;15.90;99.90
316;DHT22;14128;48.686;9.738;2023-06-26T01:00:55;16.00;99.90
316;DHT22;14128;48.686;9.738;2023-06-26T01:03:23;16.00;99.90
316;DHT22;14128;48.686;9.738;2023-06-26T01:05:52;15.90;99.90
316;DHT22;14128;48.686;9.738;2023-06-26T01:08:19;15.90;99.90
316;DHT22;14128;48.686;9.738;2023-06-26T01:10:47;15.90;67.80
316;DHT22;14128;48.686;9.738;2023-06-26T01:13:14;15.90;99.90
316;DHT22;14128;48.686;9.738;2023-06-26T01:15:42;15.80;1.00
316;DHT22;14128;48.686;9.738;2023-06-26T01:18:09;15.70;99.90
316;DHT22;14128;48.686;9.738;2023-06-26T01:20:37;15.60;99.90
316;DHT22;14128;48.686;9.738;2023-06-26T01:23:17;15.50;99.90
316;DHT22;14128;48.686;9.738;2023-06-26T01:25:56;15.50;17.20
316;DHT22;14128;48.686;9.738;2023-06-26T01:28:28;15.50;1.00
316;DHT22;14128;48.686;9.738;2023-06-26T01:30:55;15.30;99.90
316;DHT22;14128;48.686;9.738;2023-06-26T01:33:22;15.20;99.90
316;DHT22;14128;48.686;9.738;2023-06-26T01:35:49;15.20;99.90
316;DHT22;14128;48.686;9.738;2023-06-26T01:38:17;15.20;99.90
316;DHT22;14128;48.686;9.738;2023-06-26T01:40:45;15.10;99.90
316;DHT22;14128;48.686;9.738;2023-06-26T01:43:27;15.20;1.00
316;DHT22;14128;48.686;9.738;2023-06-26T01:45:58;15.10;99.90
316;DHT22;14128;48.686;9.738;2023-06-26T01:48:30;15.10;99.90
316;DHT22;14128;48.686;9.738;2023-06-26T01:50:59;15.10;99.90
316;DHT22;14128;48.686;9.738;2023-06-26T01:53:30;15.30;99.90
316;DHT22;14128;48.686;9.738;2023-06-26T01:56:02;15.20;99.90
316;DHT22;14128;48.686;9.738;2023-06-26T01:58:32;15.20;1.00
316;DHT22;14128;48.686;9.738;2023-06-26T02:01:01;15.20;99.90
316;DHT22;14128;48.686;9.738;2023-06-26T02:03:28;15.20;99.90
316;DHT22;14128;48.686;9.738;2023-06-26T02:05:56;15.10;1.00
316;DHT22;14128;48.686;9.738;2023-06-26T02:08:22;15.10;1.00
316;DHT22;14128;48.686;9.738;2023-06-26T02:10:49;15.20;99.90
316;DHT22;14128;48.686;9.738;2023-06-26T02:13:16;15.10;99.90
316;DHT22;14128;48.686;9.738;2023-06-26T02:15:43;15.10;99.90
316;DHT22;14128;48.686;9.738;2023-06-26T02:18:11;15.10;32.70
316;DHT22;14128;48.686;9.738;2023-06-26T02:20:38;15.10;1.00
316;DHT22;14128;48.686;9.738;2023-06-26T02:23:04;15.10;99.90
316;DHT22;14128;48.686;9.738;2023-06-26T02:25:32;15.10;99.90
316;DHT22;14128;48.686;9.738;2023-06-26T02:27:59;15.20;99.90
316;DHT22;14128;48.686;9.738;2023-06-26T02:30:25;15.10;99.90
316;DHT22;14128;48.686;9.738;2023-06-26T02:32:52;15.10;99.90
316;DHT22;14128;48.686;9.738;2023-06-26T02:35:20;15.00;99.90
316;DHT22;14128;48.686;9.738;2023-06-26T02:37:47;15.10;99.90
316;DHT22;14128;48.686;9.738;2023-06-26T02:40:14;15.00;99.90
316;DHT22;14128;48.686;9.738;2023-06-26T02:42:41;15.00;99.90
316;DHT22;14128;48.686;9.738;2023-06-26T02:45:09;15.00;99.90
316;DHT22;14128;48.686;9.738;2023-06-26T02:47:36;14.90;99.90
316;DHT22;14128;48.686;9.738;2023-06-26T02:50:05;14.90;99.90
316;DHT22;14128;48.686;9.738;2023-06-26T02:52:33;14.90;99.90
316;DHT22;14128;48.686;9.738;2023-06-26T02:55:00;14.80;1.00
316;DHT22;14128;48.686;9.738;2023-06-26T02:57:27;14.80;1.00
316;DHT22;14128;48.686;9.738;2023-06-26T02:59:54;14.80;99.90
316;DHT22;14128;48.686;9.738;2023-06-26T03:02:21;14.70;68.40
316;DHT22;14128;48.686;9.738;2023-06-26T03:04:47;14.70;99.90
316;DHT22;14128;48.686;9.738;2023-06-26T03:07:15;14.60;1.00
316;DHT22;14128;48.686;9.738;2023-06-26T03:09:43;14.60;99.90
316;DHT22;14128;48.686;9.738;2023-06-26T03:12:10;14.60;1.00
316;DHT22;14128;48.686;9.738;2023-06-26T03:14:37;14.60;99.90
316;DHT22;14128;48.686;9.738;2023-06-26T03:17:04;14.60;1.00
316;DHT22;14128;48.686;9.738;2023-06-26T03:19:32;14.60;96.50
316;DHT22;14128;48.686;9.738;2023-06-26T03:21:59;14.50;99.90
316;DHT22;14128;48.686;9.738;2023-06-26T03:24:26;14.60;99.90
316;DHT22;14128;48.686;9.738;2023-06-26T03:26:54;14.60;99.90
316;DHT22;14128;48.686;9.738;2023-06-26T03:29:21;14.70;99.90
316;DHT22;14128;48.686;9.738;2023-06-26T03:31:48;14.70;1.00
316;DHT22;14128;48.686;9.738;2023-06-26T03:34:15;14.70;99.90
316;DHT22;14128;48.686;9.738;2023-06-26T03:36:41;14.90;1.00
316;DHT22;14128;48.686;9.738;2023-06-26T03:39:08;14.90;99.90
316;DHT22;14128;48.686;9.738;2023-06-26T03:41:35;14.80;1.00
316;DHT22;14128;48.686;9.738;2023-06-26T03:44:03;14.90;99.90
316;DHT22;14128;48.686;9.738;2023-06-26T03:46:30;14.90;1.00
316;DHT22;14128;48.686;9.738;2023-06-26T03:48:57;14.90;99.90
316;DHT22;14128;48.686;9.738;2023-06-26T03:51:24;15.00;99.90
316;DHT22;14128;48.686;9.738;2023-06-26T03:53:50;15.00;1.00
316;DHT22;14128;48.686;9.738;2023-06-26T03:56:17;14.90;99.90
316;DHT22;14128;48.686;9.738;2023-06-26T03:58:44;14.90;1.00
316;DHT22;14128;48.686;9.738;2023-06-26T04:01:12;15.00;99.90
316;DHT22;14128;48.686;9.738;2023-06-26T04:03:39;15.10;1.00
316;DHT22;14128;48.686;9.738;2023-06-26T04:06:06;15.10;1.00
316;DHT22;14128;48.686;9.738;2023-06-26T04:08:33;15.10;99.90
316;DHT22;14128;48.686;9.738;2023-06-26T04:11:00;15.10;1.00
316;DHT22;14128;48.686;9.738;2023-06-26T04:13:26;15.10;99.90
316;DHT22;14128;48.686;9.738;2023-06-26T04:15:53;15.10;99.90
316;DHT22;14128;48.686;9.738;2023-06-26T04:18:21;15.30;99.90
316;DHT22;14128;48.686;9.738;2023-06-26T04:21:05;15.20;1.00
316;DHT22;14128;48.686;9.738;2023-06-26T04:23:33;15.30;99.90
316;DHT22;14128;48.686;9.738;2023-06-26T04:26:00;15.30;99.90
316;DHT22;14128;48.686;9.738;2023-06-26T04:28:28;15.30;99.90
316;DHT22;14128;48.686;9.738;2023-06-26T04:30:54;15.30;1.00
316;DHT22;14128;48.686;9.738;2023-06-26T04:33:23;15.30;99.90
316;DHT22;14128;48.686;9.738;2023-06-26T04:35:50;15.30;1.00
316;DHT22;14128;48.686;9.738;2023-06-26T04:38:16;15.30;99.90
316;DHT22;14128;48.686;9.738;2023-06-26T04:40:43;15.40;1.40
316;DHT22;14128;48.686;9.738;2023-06-26T04:43:10;15.50;1.40
316;DHT22;14128;48.686;9.738;2023-06-26T04:45:37;15.50;1.40
316;DHT22;14128;48.686;9.738;2023-06-26T04:48:04;15.60;99.90
316;DHT22;14128;48.686;9.738;2023-06-26T04:50:33;15.60;99.90
316;DHT22;14128;48.686;9.738;2023-06-26T04:53:01;15.70;99.90
316;DHT22;14128;48.686;9.738;2023-06-26T04:55:28;15.80;1.00
316;DHT22;14128;48.686;9.738;2023-06-26T04:57:56;15.80;79.60
316;DHT22;14128;48.686;9.738;2023-06-26T05:00:22;15.90;10.80
316;DHT22;14128;48.686;9.738;2023-06-26T05:02:50;15.90;99.90
316;DHT22;14128;48.686;9.738;2023-06-26T05:05:24;16.00;1.00
316;DHT22;14128;48.686;9.738;2023-06-26T05:07:54;16.20;99.90
316;DHT22;14128;48.686;9.738;2023-06-26T05:10:21;16.30;99.90
316;DHT22;14128;48.686;9.738;2023-06-26T05:12:48;16.40;69.90
316;DHT22;14128;48.686;9.738;2023-06-26T05:15:15;16.50;5.40
316;DHT22;14128;48.686;9.738;2023-06-26T05:17:42;16.50;1.00
316;DHT22;14128;48.686;9.738;2023-06-26T05:20:10;16.60;1.00
316;DHT22;14128;48.686;9.738;2023-06-26T05:22:37;16.80;99.90
316;DHT22;14128;48.686;9.738;2023-06-26T05:25:08;16.90;99.90
316;DHT22;14128;48.686;9.738;2023-06-26T05:27:36;17.00;1.00
316;DHT22;14128;48.686;9.738;2023-06-26T05:30:04;17.10;1.00
316;DHT22;14128;48.686;9.738;2023-06-26T05:32:33;17.30;1.00
316;DHT22;14128;48.686;9.738;2023-06-26T05:35:02;17.40;99.90
316;DHT22;14128;48.686;9.738;2023-06-26T05:37:31;17.50;99.90
316;DHT22;14128;48.686;9.738;2023-06-26T05:39:59;17.70;99.90
316;DHT22;14128;48.686;9.738;2023-06-26T05:42:28;17.80;99.90
316;DHT22;14128;48.686;9.738;2023-06-26T05:54:15;18.30;1.00
316;DHT22;14128;48.686;9.738;2023-06-26T05:56:43;18.60;99.90
316;DHT22;14128;48.686;9.738;2023-06-26T05:59:12;18.70;99.90
316;DHT22;14128;48.686;9.738;2023-06-26T06:01:40;18.90;99.90
316;DHT22;14128;48.686;9.738;2023-06-26T06:04:07;19.00;99.90
316;DHT22;14128;48.686;9.738;2023-06-26T06:06:34;19.20;99.90
316;DHT22;14128;48.686;9.738;2023-06-26T06:09:01;19.30;1.00
316;DHT22;14128;48.686;9.738;2023-06-26T06:11:28;19.50;1.00
316;DHT22;14128;48.686;9.738;2023-06-26T06:13:55;19.60;99.90
316;DHT22;14128;48.686;9.738;2023-06-26T06:16:25;19.70;99.90
316;DHT22;14128;48.686;9.738;2023-06-26T06:18:54;19.80;99.90
316;DHT22;14128;48.686;9.738;2023-06-26T06:21:21;19.90;99.90
316;DHT22;14128;48.686;9.738;2023-06-26T06:23:48;20.00;99.90
316;DHT22;14128;48.686;9.738;2023-06-26T06:26:15;20.20;1.00
316;DHT22;14128;48.686;9.738;2023-06-26T06:28:41;20.30;99.90
316;DHT22;14128;48.686;9.738;2023-06-26T06:31:08;20.40;1.00
316;DHT22;14128;48.686;9.738;2023-06-26T06:33:36;20.50;99.90
316;DHT22;14128;48.686;9.738;2023-06-26T06:36:04;20.60;99.90
316;DHT22;14128;48.686;9.738;2023-06-26T06:38:31;20.80;99.90
316;DHT22;14128;48.686;9.738;2023-06-26T06:40:58;20.90;99.90
316;DHT22;14128;48.686;9.738;2023-06-26T06:43:24;21.10;1.00
316;DHT22;14128;48.686;9.738;2023-06-26T06:45:51;21.30;99.90
316;DHT22;14128;48.686;9.738;2023-06-26T06:48:18;21.50;99.90
316;DHT22;14128;48.686;9.738;2023-06-26T06:50:46;21.60;99.90
316;DHT22;14128;48.686;9.738;2023-06-26T06:53:13;21.80;1.00
316;DHT22;14128;48.686;9.738;2023-06-26T06:55:40;22.00;1.00
316;DHT22;14128;48.686;9.738;2023-06-26T06:58:07;22.00;1.00
316;DHT22;14128;48.686;9.738;2023-06-26T07:00:33;22.20;1.00
316;DHT22;14128;48.686;9.738;2023-06-26T07:03:00;22.40;1.00
316;DHT22;14128;48.686;9.738;2023-06-26T07:05:27;22.40;1.00
316;DHT22;14128;48.686;9.738;2023-06-26T07:07:55;22.50;1.00
316;DHT22;14128;48.686;9.738;2023-06-26T07:10:22;22.60;99.90
316;DHT22;14128;48.686;9.738;2023-06-26T07:12:49;22.80;1.00
316;DHT22;14128;48.686;9.738;2023-06-26T07:15:16;23.00;1.40
316;DHT22;14128;48.686;9.738;2023-06-26T07:17:43;23.20;71.10
316;DHT22;14128;48.686;9.738;2023-06-26T07:20:11;23.20;99.90
316;DHT22;14128;48.686;9.738;2023-06-26T07:22:41;23.30;57.30
316;DHT22;14128;48.686;9.738;2023-06-26T07:25:10;23.50;1.00
316;DHT22;14128;48.686;9.738;2023-06-26T07:27:37;23.60;99.90
316;DHT22;14128;48.686;9.738;2023-06-26T07:30:04;23.80;99.90
316;DHT22;14128;48.686;9.738;2023-06-26T07:32:31;24.00;1.00
316;DHT22;14128;48.686;9.738;2023-06-26T07:34:58;24.00;1.00
316;DHT22;14128;48.686;9.738;2023-06-26T07:37:24;24.20;1.00
316;DHT22;14128;48.686;9.738;2023-06-26T07:39:51;24.30;1.00
316;DHT22;14128;48.686;9.738;2023-06-26T07:42:19;24.40;1.00
316;DHT22;14128;48.686;9.738;2023-06-26T07:44:46;24.50;1.00
316;DHT22;14128;48.686;9.738;2023-06-26T07:47:13;24.60;1.00
316;DHT22;14128;48.686;9.738;2023-06-26T07:49:40;24.80;1.00
316;DHT22;14128;48.686;9.738;2023-06-26T07:52:07;25.00;1.00
316;DHT22;14128;48.686;9.738;2023-06-26T07:54:36;25.10;1.00
316;DHT22;14128;48.686;9.738;2023-06-26T07:57:05;25.30;1.00
316;DHT22;14128;48.686;9.738;2023-06-26T07:59:34;25.30;99.90
316;DHT22;14128;48.686;9.738;2023-06-26T08:02:01;25.50;99.90
316;DHT22;14128;48.686;9.738;2023-06-26T08:04:29;25.50;1.00
316;DHT22;14128;48.686;9.738;2023-06-26T08:06:58;25.70;99.90
316;DHT22;14128;48.686;9.738;2023-06-26T08:09:26;25.80;35.60
316;DHT22;14128;48.686;9.738;2023-06-26T08:11:54;25.80;99.90
316;DHT22;14128;48.686;9.738;2023-06-26T08:14:21;25.90;1.00
316;DHT22;14128;48.686;9.738;2023-06-26T08:16:50;26.00;99.90
316;DHT22;14128;48.686;9.738;2023-06-26T08:19:17;25.90;58.10
316;DHT22;14128;48.686;9.738;2023-06-26T08:21:45;26.00;43.30
316;DHT22;14128;48.686;9.738;2023-06-26T08:24:12;26.10;99.90
316;DHT22;14128;48.686;9.738;2023-06-26T08:26:41;26.20;99.90
316;DHT22;14128;48.686;9.738;2023-06-26T08:29:08;26.20;99.90
316;DHT22;14128;48.686;9.738;2023-06-26T08:31:35;26.40;1.00
316;DHT22;14128;48.686;9.738;2023-06-26T08:34:04;26.40;1.00
316;DHT22;14128;48.686;9.738;2023-06-26T08:36:31;26.40;1.00
316;DHT22;14128;48.686;9.738;2023-06-26T08:38:58;26.40;1.00
316;DHT22;14128;48.686;9.738;2023-06-26T08:41:25;26.60;1.00
316;DHT22;14128;48.686;9.738;2023-06-26T08:43:52;26.80;99.90
316;DHT22;14128;48.686;9.738;2023-06-26T08:46:19;26.90;99.90
316;DHT22;14128;48.686;9.738;2023-06-26T08:48:49;27.10;70.00
316;DHT22;14128;48.686;9.738;2023-06-26T08:51:23;27.20;99.90
316;DHT22;14128;48.686;9.738;2023-06-26T08:53:56;27.30;99.90
316;DHT22;14128;48.686;9.738;2023-06-26T08:56:24;27.30;99.90
316;DHT22;14128;48.686;9.738;2023-06-26T08:58:51;27.30;66.00
316;DHT22;14128;48.686;9.738;2023-06-26T09:01:18;27.40;99.90
316;DHT22;14128;48.686;9.738;2023-06-26T09:03:46;27.40;99.90
316;DHT22;14128;48.686;9.738;2023-06-26T09:06:13;27.50;99.90
316;DHT22;14128;48.686;9.738;2023-06-26T09:08:41;27.60;99.90
316;DHT22;14128;48.686;9.738;2023-06-26T09:11:08;27.50;99.90
316;DHT22;14128;48.686;9.738;2023-06-26T09:13:35;27.60;1.00
316;DHT22;14128;48.686;9.738;2023-06-26T09:16:05;27.70;99.90
316;DHT22;14128;48.686;9.738;2023-06-26T09:18:34;27.70;1.00
316;DHT22;14128;48.686;9.738;2023-06-26T09:21:06;27.80;1.00
316;DHT22;14128;48.686;9.738;2023-06-26T09:23:34;28.00;1.00
316;DHT22;14128;48.686;9.738;2023-06-26T09:26:03;28.10;99.90
316;DHT22;14128;48.686;9.738;2023-06-26T09:28:30;28.20;99.90
316;DHT22;14128;48.686;9.738;2023-06-26T09:31:01;28.10;1.00
316;DHT22;14128;48.686;9.738;2023-06-26T09:33:33;28.20;1.00
316;DHT22;14128;48.686;9.738;2023-06-26T09:36:01;28.30;99.90
316;DHT22;14128;48.686;9.738;2023-06-26T09:38:28;28.50;99.90
316;DHT22;14128;48.686;9.738;2023-06-26T09:40:55;28.50;99.90
316;DHT22;14128;48.686;9.738;2023-06-26T09:43:23;28.50;99.90
316;DHT22;14128;48.686;9.738;2023-06-26T09:45:51;28.60;1.00
316;DHT22;14128;48.686;9.738;2023-06-26T09:48:19;28.70;99.90
316;DHT22;14128;48.686;9.738;2023-06-26T09:50:46;28.90;68.00
316;DHT22;14128;48.686;9.738;2023-06-26T09:53:13;29.20;21.10
316;DHT22;14128;48.686;9.738;2023-06-26T09:55:41;29.30;99.90
316;DHT22;14128;48.686;9.738;2023-06-26T09:58:10;29.60;99.90
316;DHT22;14128;48.686;9.738;2023-06-26T10:00:41;29.80;3.80
316;DHT22;14128;48.686;9.738;2023-06-26T10:03:10;29.70;99.90
316;DHT22;14128;48.686;9.738;2023-06-26T10:05:38;29.80;99.90
316;DHT22;14128;48.686;9.738;2023-06-26T10:08:05;30.00;99.90
316;DHT22;14128;48.686;9.738;2023-06-26T10:10:33;30.10;99.90
316;DHT22;14128;48.686;9.738;2023-06-26T10:13:08;30.30;99.90
316;DHT22;14128;48.686;9.738;2023-06-26T10:15:38;30.60;99.90
316;DHT22;14128;48.686;9.738;2023-06-26T10:18:08;30.90;99.90
316;DHT22;14128;48.686;9.738;2023-06-26T10:20:35;30.90;1.00
316;DHT22;14128;48.686;9.738;2023-06-26T10:23:03;30.80;99.90
316;DHT22;14128;48.686;9.738;2023-06-26T10:25:31;30.60;99.90
316;DHT22;14128;48.686;9.738;2023-06-26T10:28:00;30.50;99.90
316;DHT22;14128;48.686;9.738;2023-06-26T10:30:29;30.40;99.90
316;DHT22;14128;48.686;9.738;2023-06-26T10:32:59;30.80;99.90
316;DHT22;14128;48.686;9.738;2023-06-26T10:35:27;31.50;99.90
316;DHT22;14128;48.686;9.738;2023-06-26T10:38:01;32.10;99.90
316;DHT22;14128;48.686;9.738;2023-06-26T10:40:40;32.50;99.90
316;DHT22;14128;48.686;9.738;2023-06-26T10:43:08;32.30;1.00
316;DHT22;14128;48.686;9.738;2023-06-26T10:45:36;32.20;99.90
316;DHT22;14128;48.686;9.738;2023-06-26T10:48:03;32.40;1.00
316;DHT22;14128;48.686;9.738;2023-06-26T10:50:32;32.20;99.90
316;DHT22;14128;48.686;9.738;2023-06-26T10:53:08;32.30;99.90
316;DHT22;14128;48.686;9.738;2023-06-26T10:55:36;32.00;99.90
316;DHT22;14128;48.686;9.738;2023-06-26T10:58:03;31.80;99.90
316;DHT22;14128;48.686;9.738;2023-06-26T11:00:30;31.80;99.90
316;DHT22;14128;48.686;9.738;2023-06-26T11:02:57;32.10;1.00
316;DHT22;14128;48.686;9.738;2023-06-26T11:05:27;31.70;1.00
316;DHT22;14128;48.686;9.738;2023-06-26T11:08:06;31.60;99.90
316;DHT22;14128;48.686;9.738;2023-06-26T11:10:49;32.10;99.90
316;DHT22;14128;48.686;9.738;2023-06-26T11:13:17;32.50;99.90
316;DHT22;14128;48.686;9.738;2023-06-26T11:15:45;32.10;99.90
316;DHT22;14128;48.686;9.738;2023-06-26T11:18:12;32.30;99.90
316;DHT22;14128;48.686;9.738;2023-06-26T11:20:39;32.00;99.90
316;DHT22;14128;48.686;9.738;2023-06-26T11:23:08;31.70;99.90
316;DHT22;14128;48.686;9.738;2023-06-26T11:25:36;31.50;9.50
316;DHT22;14128;48.686;9.738;2023-06-26T11:28:03;31.30;99.90
316;DHT22;14128;48.686;9.738;2023-06-26T11:30:31;31.00;99.90
316;DHT22;14128;48.686;9.738;2023-06-26T11:33:05;30.90;99.90
316;DHT22;14128;48.686;9.738;2023-06-26T11:35:32;30.30;99.90
316;DHT22;14128;48.686;9.738;2023-06-26T11:37:59;30.20;99.90
316;DHT22;14128;48.686;9.738;2023-06-26T11:40:32;30.20;99.90
316;DHT22;14128;48.686;9.738;2023-06-26T11:42:59;30.40;99.90
316;DHT22;14128;48.686;9.738;2023-06-26T11:45:28;30.50;99.90
316;DHT22;14128;48.686;9.738;2023-06-26T11:47:56;30.50;99.90
316;DHT22;14128;48.686;9.738;2023-06-26T11:50:23;30.80;99.90
316;DHT22;14128;48.686;9.738;2023-06-26T11:52:54;31.10;99.90
316;DHT22;14128;48.686;9.738;2023-06-26T11:55:21;31.20;99.90
316;DHT22;14128;48.686;9.738;2023-06-26T11:57:50;31.20;99.90
316;DHT22;14128;48.686;9.738;2023-06-26T12:00:17;31.30;99.90
316;DHT22;14128;48.686;9.738;2023-06-26T12:02:45;31.20;99.90
316;DHT22;14128;48.686;9.738;2023-06-26T12:05:13;31.50;99.90
316;DHT22;14128;48.686;9.738;2023-06-26T12:07:41;31.90;99.90
316;DHT22;14128;48.686;9.738;2023-06-26T12:10:10;32.00;99.90
316;DHT22;14128;48.686;9.738;2023-06-26T12:12:39;32.20;99.90
316;DHT22;14128;48.686;9.738;2023-06-26T12:15:09;32.30;99.90
316;DHT22;14128;48.686;9.738;2023-06-26T12:17:38;32.00;99.90
316;DHT22;14128;48.686;9.738;2023-06-26T12:20:16;31.80;10.60
316;DHT22;14128;48.686;9.738;2023-06-26T12:22:45;31.80;99.90
316;DHT22;14128;48.686;9.738;2023-06-26T12:25:13;31.90;99.90
316;DHT22;14128;48.686;9.738;2023-06-26T12:27:39;32.50;99.90
316;DHT22;14128;48.686;9.738;2023-06-26T12:30:08;32.90;99.90
316;DHT22;14128;48.686;9.738;2023-06-26T12:32:35;33.20;99.90
316;DHT22;14128;48.686;9.738;2023-06-26T12:35:02;33.10;99.90
316;DHT22;14128;48.686;9.738;2023-06-26T12:37:29;32.50;99.90
316;DHT22;14128;48.686;9.738;2023-06-26T12:40:03;31.70;1.40
316;DHT22;14128;48.686;9.738;2023-06-26T12:42:33;31.10;99.90
316;DHT22;14128;48.686;9.738;2023-06-26T12:45:12;30.80;99.90
316;DHT22;14128;48.686;9.738;2023-06-26T12:47:39;30.90;99.90
316;DHT22;14128;48.686;9.738;2023-06-26T12:50:07;30.90;99.90
316;DHT22;14128;48.686;9.738;2023-06-26T12:52:34;30.90;99.90
316;DHT22;14128;48.686;9.738;2023-06-26T12:55:01;30.70;99.90
316;DHT22;14128;48.686;9.738;2023-06-26T12:57:28;30.50;99.90
316;DHT22;14128;48.686;9.738;2023-06-26T12:59:55;30.30;99.90
316;DHT22;14128;48.686;9.738;2023-06-26T13:02:23;30.10;1.40
316;DHT22;14128;48.686;9.738;2023-06-26T13:04:50;29.90;99.90
316;DHT22;14128;48.686;9.738;2023-06-26T13:07:16;29.80;99.90
316;DHT22;14128;48.686;9.738;2023-06-26T13:09:43;31.00;99.90
316;DHT22;14128;48.686;9.738;2023-06-26T13:12:11;31.70;1.40
316;DHT22;14128;48.686;9.738;2023-06-26T13:14:38;32.40;99.90
316;DHT22;14128;48.686;9.738;2023-06-26T13:17:05;33.70;99.90
316;DHT22;14128;48.686;9.738;2023-06-26T13:19:33;33.80;99.90
316;DHT22;14128;48.686;9.738;2023-06-26T13:22:00;34.10;99.90
316;DHT22;14128;48.686;9.738;2023-06-26T13:24:27;33.50;99.90
316;DHT22;14128;48.686;9.738;2023-06-26T13:26:53;32.20;1.40
316;DHT22;14128;48.686;9.738;2023-06-26T13:29:20;32.00;99.90
316;DHT22;14128;48.686;9.738;2023-06-26T13:31:48;32.80;1.40
316;DHT22;14128;48.686;9.738;2023-06-26T13:34:21;33.50;99.90
316;DHT22;14128;48.686;9.738;2023-06-26T13:36:50;34.40;99.90
316;DHT22;14128;48.686;9.738;2023-06-26T13:39:17;35.10;99.90
316;DHT22;14128;48.686;9.738;2023-06-26T13:41:44;36.20;99.90
316;DHT22;14128;48.686;9.738;2023-06-26T13:44:11;37.40;99.90
316;DHT22;14128;48.686;9.738;2023-06-26T13:46:38;37.70;99.90
316;DHT22;14128;48.686;9.738;2023-06-26T13:49:04;39.00;99.90
316;DHT22;14128;48.686;9.738;2023-06-26T13:51:31;39.60;99.90
316;DHT22;14128;48.686;9.738;2023-06-26T13:53:59;38.40;99.90
316;DHT22;14128;48.686;9.738;2023-06-26T13:56:26;35.60;99.90
316;DHT22;14128;48.686;9.738;2023-06-26T13:58:56;37.10;99.90
316;DHT22;14128;48.686;9.738;2023-06-26T14:01:23;37.30;99.90
316;DHT22;14128;48.686;9.738;2023-06-26T14:03:50;36.10;99.90
316;DHT22;14128;48.686;9.738;2023-06-26T14:06:17;33.90;1.40
316;DHT22;14128;48.686;9.738;2023-06-26T14:08:44;32.30;99.90
316;DHT22;14128;48.686;9.738;2023-06-26T14:11:12;31.20;99.90
316;DHT22;14128;48.686;9.738;2023-06-26T14:13:41;30.60;99.90
316;DHT22;14128;48.686;9.738;2023-06-26T14:16:08;30.60;99.90
316;DHT22;14128;48.686;9.738;2023-06-26T14:18:35;31.20;99.90
316;DHT22;14128;48.686;9.738;2023-06-26T14:21:02;30.60;99.90
316;DHT22;14128;48.686;9.738;2023-06-26T14:23:29;30.60;99.90
316;DHT22;14128;48.686;9.738;2023-06-26T14:25:56;30.80;99.90
316;DHT22;14128;48.686;9.738;2023-06-26T14:28:24;32.70;1.40
316;DHT22;14128;48.686;9.738;2023-06-26T14:30:51;31.40;99.90
316;DHT22;14128;48.686;9.738;2023-06-26T14:33:18;31.00;99.90
316;DHT22;14128;48.686;9.738;2023-06-26T14:35:44;34.80;99.90
316;DHT22;14128;48.686;9.738;2023-06-26T14:38:11;35.00;99.90
316;DHT22;14128;48.686;9.738;2023-06-26T14:40:38;35.00;99.90
316;DHT22;14128;48.686;9.738;2023-06-26T14:43:05;35.80;99.90
316;DHT22;14128;48.686;9.738;2023-06-26T14:45:33;34.70;99.90
316;DHT22;14128;48.686;9.738;2023-06-26T14:48:00;36.80;1.40
316;DHT22;14128;48.686;9.738;2023-06-26T14:50:27;34.60;99.90
316;DHT22;14128;48.686;9.738;2023-06-26T14:52:53;34.70;99.90
316;DHT22;14128;48.686;9.738;2023-06-26T14:55:20;37.20;99.90
316;DHT22;14128;48.686;9.738;2023-06-26T14:57:47;38.80;28.90
316;DHT22;14128;48.686;9.738;2023-06-26T15:00:15;40.20;99.90
316;DHT22;14128;48.686;9.738;2023-06-26T15:02:43;37.00;99.90
316;DHT22;14128;48.686;9.738;2023-06-26T15:05:10;36.50;99.90
316;DHT22;14128;48.686;9.738;2023-06-26T15:07:37;37.90;99.90
316;DHT22;14128;48.686;9.738;2023-06-26T15:10:05;40.20;1.00
316;DHT22;14128;48.686;9.738;2023-06-26T15:12:32;37.80;99.90
316;DHT22;14128;48.686;9.738;2023-06-26T15:14:59;38.70;99.90
316;DHT22;14128;48.686;9.738;2023-06-26T15:17:26;37.20;1.00
316;DHT22;14128;48.686;9.738;2023-06-26T15:19:54;34.60;99.90
316;DHT22;14128;48.686;9.738;2023-06-26T15:22:22;34.00;1.00
316;DHT22;14128;48.686;9.738;2023-06-26T15:24:52;37.90;99.90
316;DHT22;14128;48.686;9.738;2023-06-26T15:27:19;39.80;37.50
316;DHT22;14128;48.686;9.738;2023-06-26T15:29:46;38.60;99.90
316;DHT22;14128;48.686;9.738;2023-06-26T15:32:12;38.70;99.90
316;DHT22;14128;48.686;9.738;2023-06-26T15:34:41;38.90;99.90
316;DHT22;14128;48.686;9.738;2023-06-26T15:37:09;38.20;99.90
316;DHT22;14128;48.686;9.738;2023-06-26T15:39:36;38.70;1.00
316;DHT22;14128;48.686;9.738;2023-06-26T15:42:05;38.30;1.00
316;DHT22;14128;48.686;9.738;2023-06-26T15:44:32;39.80;12.80
316;DHT22;14128;48.686;9.738;2023-06-26T15:46:59;39.80;1.40
316;DHT22;14128;48.686;9.738;2023-06-26T15:49:26;40.10;1.40
316;DHT22;14128;48.686;9.738;2023-06-26T15:51:53;38.40;1.40
316;DHT22;14128;48.686;9.738;2023-06-26T15:54:21;37.70;1.40
316;DHT22;14128;48.686;9.738;2023-06-26T15:56:48;38.40;1.40
316;DHT22;14128;48.686;9.738;2023-06-26T15:59:14;37.90;1.40
316;DHT22;14128;48.686;9.738;2023-06-26T16:01:44;39.00;1.40
316;DHT22;14128;48.686;9.738;2023-06-26T16:04:14;37.60;1.40
316;DHT22;14128;48.686;9.738;2023-06-26T16:06:40;37.00;1.40
316;DHT22;14128;48.686;9.738;2023-06-26T16:09:07;37.80;1.40
316;DHT22;14128;48.686;9.738;2023-06-26T16:11:35;36.90;1.40
316;DHT22;14128;48.686;9.738;2023-06-26T16:14:02;34.90;1.40
316;DHT22;14128;48.686;9.738;2023-06-26T16:16:29;34.70;1.40
316;DHT22;14128;48.686;9.738;2023-06-26T16:18:56;36.00;1.40
316;DHT22;14128;48.686;9.738;2023-06-26T16:21:23;37.10;1.40